sensor_id;sensor_type;location;lat;lon;timestamp;P1;durP1;ratioP1;P2;durP2;ratioP2
37477;SDS011;23334;54.316;10.182;2023-03-26T00:01:47;13.97;;;3.67;;
37477;SDS011;23334;54.316;10.182;2023-03-26T00:04:13;6.23;;;3.30;;
37477;SDS011;23334;54.316;10.182;2023-03-26T00:06:43;12.23;;;3.07;;
37477;SDS011;23334;54.316;10.182;2023-03-26T00:09:12;15.80;;;2.87;;
37477;SDS011;23334;54.316;10.182;2023-03-26T00:11:40;7.53;;;2.50;;
37477;SDS011;23334;54.316;10.182;2023-03-26T00:14:06;11.23;;;3.00;;
37477;SDS011;23334;54.316;10.182;2023-03-26T00:16:33;9.27;;;2.93;;
37477;SDS011;23334;54.316;10.182;2023-03-26T00:18:59;13.17;;;3.93;;
37477;SDS011;23334;54.316;10.182;2023-03-26T00:21:26;16.73;;;3.73;;
37477;SDS011;23334;54.316;10.182;2023-03-26T00:23:56;9.27;;;3.30;;
37477;SDS011;23334;54.316;10.182;2023-03-26T00:26:33;8.07;;;3.63;;
37477;SDS011;23334;54.316;10.182;2023-03-26T00:29:01;8.30;;;4.00;;
37477;SDS011;23334;54.316;10.182;2023-03-26T00:31:28;19.63;;;3.83;;
37477;SDS011;23334;54.316;10.182;2023-03-26T00:33:54;10.80;;;3.43;;
37477;SDS011;23334;54.316;10.182;2023-03-26T00:36:20;20.43;;;7.93;;
37477;SDS011;23334;54.316;10.182;2023-03-26T00:38:47;18.83;;;3.40;;
37477;SDS011;23334;54.316;10.182;2023-03-26T00:41:13;6.53;;;3.80;;
37477;SDS011;23334;54.316;10.182;2023-03-26T00:43:49;9.37;;;4.73;;
37477;SDS011;23334;54.316;10.182;2023-03-26T00:46:17;21.57;;;4.07;;
37477;SDS011;23334;54.316;10.182;2023-03-26T00:48:44;8.53;;;3.07;;
37477;SDS011;23334;54.316;10.182;2023-03-26T00:51:10;8.00;;;2.37;;
37477;SDS011;23334;54.316;10.182;2023-03-26T00:53:42;13.50;;;3.20;;
37477;SDS011;23334;54.316;10.182;2023-03-26T00:56:09;15.27;;;3.60;;
37477;SDS011;23334;54.316;10.182;2023-03-26T00:58:35;13.00;;;2.97;;
37477;SDS011;23334;54.316;10.182;2023-03-26T01:01:03;16.87;;;3.03;;
37477;SDS011;23334;54.316;10.182;2023-03-26T01:03:35;10.97;;;1.93;;
37477;SDS011;23334;54.316;10.182;2023-03-26T01:06:11;7.80;;;2.70;;
37477;SDS011;23334;54.316;10.182;2023-03-26T01:08:41;13.60;;;3.50;;
37477;SDS011;23334;54.316;10.182;2023-03-26T01:11:20;15.27;;;2.97;;
37477;SDS011;23334;54.316;10.182;2023-03-26T01:14:01;9.23;;;3.40;;
37477;SDS011;23334;54.316;10.182;2023-03-26T01:16:36;13.20;;;2.87;;
37477;SDS011;23334;54.316;10.182;2023-03-26T01:19:14;7.03;;;3.23;;
37477;SDS011;23334;54.316;10.182;2023-03-26T01:22:04;6.13;;;2.07;;
37477;SDS011;23334;54.316;10.182;2023-03-26T01:24:33;9.23;;;1.80;;
37477;SDS011;23334;54.316;10.182;2023-03-26T01:27:13;4.13;;;1.90;;
37477;SDS011;23334;54.316;10.182;2023-03-26T01:29:52;4.80;;;1.83;;
37477;SDS011;23334;54.316;10.182;2023-03-26T01:32:28;4.10;;;1.87;;
37477;SDS011;23334;54.316;10.182;2023-03-26T01:35:16;8.80;;;2.57;;
37477;SDS011;23334;54.316;10.182;2023-03-26T01:40:51;12.03;;;2.50;;
37477;SDS011;23334;54.316;10.182;2023-03-26T01:43:29;7.00;;;1.97;;
37477;SDS011;23334;54.316;10.182;2023-03-26T01:46:01;10.47;;;1.70;;
37477;SDS011;23334;54.316;10.182;2023-03-26T01:48:30;11.53;;;1.30;;
37477;SDS011;23334;54.316;10.182;2023-03-26T01:51:00;4.70;;;1.63;;
37477;SDS011;23334;54.316;10.182;2023-03-26T01:53:26;6.50;;;1.70;;
37477;SDS011;23334;54.316;10.182;2023-03-26T02:04:00;5.23;;;1.40;;
37477;SDS011;23334;54.316;10.182;2023-03-26T02:06:37;8.80;;;1.23;;
37477;SDS011;23334;54.316;10.182;2023-03-26T02:09:19;3.70;;;1.10;;
37477;SDS011;23334;54.316;10.182;2023-03-26T02:11:48;3.40;;;1.37;;
37477;SDS011;23334;54.316;10.182;2023-03-26T02:14:15;6.30;;;1.20;;
37477;SDS011;23334;54.316;10.182;2023-03-26T02:16:41;11.67;;;1.00;;
37477;SDS011;23334;54.316;10.182;2023-03-26T02:19:10;2.47;;;1.07;;
37477;SDS011;23334;54.316;10.182;2023-03-26T02:21:39;5.60;;;1.17;;
37477;SDS011;23334;54.316;10.182;2023-03-26T02:24:05;7.60;;;1.77;;
37477;SDS011;23334;54.316;10.182;2023-03-26T02:26:32;4.40;;;2.00;;
37477;SDS011;23334;54.316;10.182;2023-03-26T02:29:00;5.50;;;1.10;;
37477;SDS011;23334;54.316;10.182;2023-03-26T02:31:26;1.00;;;0.90;;
37477;SDS011;23334;54.316;10.182;2023-03-26T02:33:52;3.90;;;1.10;;
37477;SDS011;23334;54.316;10.182;2023-03-26T02:36:19;7.63;;;1.07;;
37477;SDS011;23334;54.316;10.182;2023-03-26T02:38:48;1.33;;;0.83;;
37477;SDS011;23334;54.316;10.182;2023-03-26T02:41:14;1.93;;;1.00;;
37477;SDS011;23334;54.316;10.182;2023-03-26T02:43:40;2.63;;;0.90;;
37477;SDS011;23334;54.316;10.182;2023-03-26T02:46:06;5.43;;;0.90;;
37477;SDS011;23334;54.316;10.182;2023-03-26T02:48:32;1.87;;;1.10;;
37477;SDS011;23334;54.316;10.182;2023-03-26T02:50:58;1.50;;;1.00;;
37477;SDS011;23334;54.316;10.182;2023-03-26T02:53:24;8.80;;;1.43;;
37477;SDS011;23334;54.316;10.182;2023-03-26T02:55:53;5.33;;;1.00;;
37477;SDS011;23334;54.316;10.182;2023-03-26T02:58:20;2.50;;;1.17;;
37477;SDS011;23334;54.316;10.182;2023-03-26T03:00:46;1.53;;;0.60;;
37477;SDS011;23334;54.316;10.182;2023-03-26T03:03:12;2.30;;;0.90;;
37477;SDS011;23334;54.316;10.182;2023-03-26T03:05:38;2.63;;;0.70;;
37477;SDS011;23334;54.316;10.182;2023-03-26T03:08:07;3.70;;;0.90;;
37477;SDS011;23334;54.316;10.182;2023-03-26T03:10:32;4.63;;;0.97;;
37477;SDS011;23334;54.316;10.182;2023-03-26T03:12:58;3.03;;;0.70;;
37477;SDS011;23334;54.316;10.182;2023-03-26T03:15:24;5.60;;;1.03;;
37477;SDS011;23334;54.316;10.182;2023-03-26T03:17:49;7.33;;;0.87;;
37477;SDS011;23334;54.316;10.182;2023-03-26T03:20:15;3.50;;;0.70;;
37477;SDS011;23334;54.316;10.182;2023-03-26T03:22:41;2.03;;;0.90;;
37477;SDS011;23334;54.316;10.182;2023-03-26T03:25:07;3.83;;;1.50;;
37477;SDS011;23334;54.316;10.182;2023-03-26T03:27:38;4.57;;;1.00;;
37477;SDS011;23334;54.316;10.182;2023-03-26T03:30:05;4.43;;;0.70;;
37477;SDS011;23334;54.316;10.182;2023-03-26T03:32:30;3.70;;;0.93;;
37477;SDS011;23334;54.316;10.182;2023-03-26T03:34:56;3.70;;;1.27;;
37477;SDS011;23334;54.316;10.182;2023-03-26T03:37:22;6.57;;;0.97;;
37477;SDS011;23334;54.316;10.182;2023-03-26T03:39:48;3.47;;;1.00;;
37477;SDS011;23334;54.316;10.182;2023-03-26T03:42:14;1.30;;;0.80;;
37477;SDS011;23334;54.316;10.182;2023-03-26T03:44:39;4.87;;;0.97;;
37477;SDS011;23334;54.316;10.182;2023-03-26T03:47:05;8.73;;;0.80;;
37477;SDS011;23334;54.316;10.182;2023-03-26T03:49:30;5.43;;;0.73;;
37477;SDS011;23334;54.316;10.182;2023-03-26T03:51:56;3.03;;;0.70;;
37477;SDS011;23334;54.316;10.182;2023-03-26T03:54:22;7.27;;;0.67;;
37477;SDS011;23334;54.316;10.182;2023-03-26T03:56:48;4.57;;;1.37;;
37477;SDS011;23334;54.316;10.182;2023-03-26T03:59:13;8.10;;;0.80;;
37477;SDS011;23334;54.316;10.182;2023-03-26T04:01:39;10.80;;;1.00;;
37477;SDS011;23334;54.316;10.182;2023-03-26T04:04:07;4.40;;;1.10;;
37477;SDS011;23334;54.316;10.182;2023-03-26T04:06:33;6.23;;;1.50;;
37477;SDS011;23334;54.316;10.182;2023-03-26T04:08:59;13.13;;;1.30;;
37477;SDS011;23334;54.316;10.182;2023-03-26T04:11:24;3.80;;;1.23;;
37477;SDS011;23334;54.316;10.182;2023-03-26T04:13:50;8.00;;;1.40;;
37477;SDS011;23334;54.316;10.182;2023-03-26T04:16:15;8.97;;;1.23;;
37477;SDS011;23334;54.316;10.182;2023-03-26T04:18:41;6.73;;;1.60;;
37477;SDS011;23334;54.316;10.182;2023-03-26T04:21:09;4.10;;;1.90;;
37477;SDS011;23334;54.316;10.182;2023-03-26T04:23:36;12.77;;;1.30;;
37477;SDS011;23334;54.316;10.182;2023-03-26T04:26:04;6.67;;;1.40;;
37477;SDS011;23334;54.316;10.182;2023-03-26T04:31:15;12.03;;;1.60;;
37477;SDS011;23334;54.316;10.182;2023-03-26T04:33:42;7.00;;;1.17;;
37477;SDS011;23334;54.316;10.182;2023-03-26T04:36:13;6.90;;;1.40;;
37477;SDS011;23334;54.316;10.182;2023-03-26T04:38:41;8.53;;;1.33;;
37477;SDS011;23334;54.316;10.182;2023-03-26T04:41:09;7.30;;;1.40;;
37477;SDS011;23334;54.316;10.182;2023-03-26T04:43:37;7.00;;;1.43;;
37477;SDS011;23334;54.316;10.182;2023-03-26T04:46:06;8.33;;;2.00;;
37477;SDS011;23334;54.316;10.182;2023-03-26T04:48:34;10.77;;;1.40;;
37477;SDS011;23334;54.316;10.182;2023-03-26T04:51:00;5.43;;;1.00;;
37477;SDS011;23334;54.316;10.182;2023-03-26T04:53:26;13.30;;;2.20;;
37477;SDS011;23334;54.316;10.182;2023-03-26T04:55:54;11.67;;;1.73;;
37477;SDS011;23334;54.316;10.182;2023-03-26T04:58:26;3.17;;;1.47;;
37477;SDS011;23334;54.316;10.182;2023-03-26T05:00:56;9.93;;;2.37;;
37477;SDS011;23334;54.316;10.182;2023-03-26T05:03:25;15.77;;;1.50;;
37477;SDS011;23334;54.316;10.182;2023-03-26T05:05:56;1.90;;;1.00;;
37477;SDS011;23334;54.316;10.182;2023-03-26T05:08:25;3.90;;;1.47;;
37477;SDS011;23334;54.316;10.182;2023-03-26T05:10:52;10.13;;;1.97;;
37477;SDS011;23334;54.316;10.182;2023-03-26T05:13:19;12.07;;;2.03;;
37477;SDS011;23334;54.316;10.182;2023-03-26T05:15:45;12.63;;;2.30;;
37477;SDS011;23334;54.316;10.182;2023-03-26T05:18:11;6.67;;;1.30;;
37477;SDS011;23334;54.316;10.182;2023-03-26T05:20:36;7.83;;;1.60;;
37477;SDS011;23334;54.316;10.182;2023-03-26T05:23:02;7.23;;;1.50;;
37477;SDS011;23334;54.316;10.182;2023-03-26T05:25:27;20.07;;;2.00;;
37477;SDS011;23334;54.316;10.182;2023-03-26T05:27:53;6.70;;;1.53;;
37477;SDS011;23334;54.316;10.182;2023-03-26T05:30:19;6.07;;;1.50;;
37477;SDS011;23334;54.316;10.182;2023-03-26T05:32:46;4.30;;;1.30;;
37477;SDS011;23334;54.316;10.182;2023-03-26T05:35:13;7.90;;;1.60;;
37477;SDS011;23334;54.316;10.182;2023-03-26T05:37:41;17.27;;;2.00;;
37477;SDS011;23334;54.316;10.182;2023-03-26T05:40:08;7.80;;;1.40;;
37477;SDS011;23334;54.316;10.182;2023-03-26T05:42:38;18.73;;;3.47;;
37477;SDS011;23334;54.316;10.182;2023-03-26T05:45:05;7.90;;;1.73;;
37477;SDS011;23334;54.316;10.182;2023-03-26T05:47:32;6.23;;;1.60;;
37477;SDS011;23334;54.316;10.182;2023-03-26T05:49:59;10.07;;;2.30;;
37477;SDS011;23334;54.316;10.182;2023-03-26T05:52:25;6.43;;;2.23;;
37477;SDS011;23334;54.316;10.182;2023-03-26T05:54:51;5.80;;;2.00;;
37477;SDS011;23334;54.316;10.182;2023-03-26T05:57:17;10.40;;;2.47;;
37477;SDS011;23334;54.316;10.182;2023-03-26T05:59:42;12.77;;;1.43;;
37477;SDS011;23334;54.316;10.182;2023-03-26T06:02:08;14.17;;;2.33;;
37477;SDS011;23334;54.316;10.182;2023-03-26T06:04:35;9.00;;;1.60;;
37477;SDS011;23334;54.316;10.182;2023-03-26T06:07:05;11.80;;;2.70;;
37477;SDS011;23334;54.316;10.182;2023-03-26T06:09:33;9.37;;;1.90;;
37477;SDS011;23334;54.316;10.182;2023-03-26T06:12:02;14.73;;;2.57;;
37477;SDS011;23334;54.316;10.182;2023-03-26T06:14:31;13.53;;;1.93;;
37477;SDS011;23334;54.316;10.182;2023-03-26T06:16:57;20.23;;;1.87;;
37477;SDS011;23334;54.316;10.182;2023-03-26T06:19:22;13.60;;;1.87;;
37477;SDS011;23334;54.316;10.182;2023-03-26T06:21:48;11.80;;;2.00;;
37477;SDS011;23334;54.316;10.182;2023-03-26T06:24:16;3.50;;;1.40;;
37477;SDS011;23334;54.316;10.182;2023-03-26T06:26:43;10.80;;;1.77;;
37477;SDS011;23334;54.316;10.182;2023-03-26T06:29:10;13.53;;;2.30;;
37477;SDS011;23334;54.316;10.182;2023-03-26T06:31:35;10.83;;;2.27;;
37477;SDS011;23334;54.316;10.182;2023-03-26T06:34:01;9.70;;;1.93;;
37477;SDS011;23334;54.316;10.182;2023-03-26T06:36:26;15.57;;;1.40;;
37477;SDS011;23334;54.316;10.182;2023-03-26T06:38:52;8.70;;;1.50;;
37477;SDS011;23334;54.316;10.182;2023-03-26T06:41:17;7.20;;;2.00;;
37477;SDS011;23334;54.316;10.182;2023-03-26T06:43:43;6.47;;;1.80;;
37477;SDS011;23334;54.316;10.182;2023-03-26T06:46:08;10.03;;;3.03;;
37477;SDS011;23334;54.316;10.182;2023-03-26T06:48:35;10.50;;;1.63;;
37477;SDS011;23334;54.316;10.182;2023-03-26T06:51:00;7.77;;;1.90;;
37477;SDS011;23334;54.316;10.182;2023-03-26T06:53:26;11.83;;;2.20;;
37477;SDS011;23334;54.316;10.182;2023-03-26T06:55:52;3.17;;;1.33;;
37477;SDS011;23334;54.316;10.182;2023-03-26T06:58:18;15.13;;;1.67;;
37477;SDS011;23334;54.316;10.182;2023-03-26T07:00:45;9.17;;;1.90;;
37477;SDS011;23334;54.316;10.182;2023-03-26T07:03:11;8.47;;;1.73;;
37477;SDS011;23334;54.316;10.182;2023-03-26T07:05:37;7.27;;;2.10;;
37477;SDS011;23334;54.316;10.182;2023-03-26T07:08:04;8.30;;;2.10;;
37477;SDS011;23334;54.316;10.182;2023-03-26T07:10:30;12.93;;;3.30;;
37477;SDS011;23334;54.316;10.182;2023-03-26T07:12:56;10.13;;;2.20;;
37477;SDS011;23334;54.316;10.182;2023-03-26T07:15:21;7.87;;;1.77;;
37477;SDS011;23334;54.316;10.182;2023-03-26T07:17:47;10.10;;;1.90;;
37477;SDS011;23334;54.316;10.182;2023-03-26T07:20:12;11.77;;;2.87;;
37477;SDS011;23334;54.316;10.182;2023-03-26T07:22:38;7.40;;;1.80;;
37477;SDS011;23334;54.316;10.182;2023-03-26T07:25:04;13.50;;;2.90;;
37477;SDS011;23334;54.316;10.182;2023-03-26T07:32:45;10.57;;;3.00;;
37477;SDS011;23334;54.316;10.182;2023-03-26T07:38:19;14.83;;;3.13;;
37477;SDS011;23334;54.316;10.182;2023-03-26T07:47:01;12.33;;;2.13;;
37477;SDS011;23334;54.316;10.182;2023-03-26T07:49:33;8.80;;;2.07;;
37477;SDS011;23334;54.316;10.182;2023-03-26T07:51:59;10.37;;;2.60;;
37477;SDS011;23334;54.316;10.182;2023-03-26T07:54:25;7.93;;;1.93;;
37477;SDS011;23334;54.316;10.182;2023-03-26T07:56:52;9.67;;;1.90;;
37477;SDS011;23334;54.316;10.182;2023-03-26T07:59:28;8.90;;;1.93;;
37477;SDS011;23334;54.316;10.182;2023-03-26T08:02:03;13.40;;;2.60;;
37477;SDS011;23334;54.316;10.182;2023-03-26T08:10:06;11.30;;;1.80;;
37477;SDS011;23334;54.316;10.182;2023-03-26T08:15:32;10.87;;;2.80;;
37477;SDS011;23334;54.316;10.182;2023-03-26T08:23:37;8.73;;;2.00;;
37477;SDS011;23334;54.316;10.182;2023-03-26T08:29:06;14.20;;;2.57;;
37477;SDS011;23334;54.316;10.182;2023-03-26T08:31:42;18.17;;;2.80;;
37477;SDS011;23334;54.316;10.182;2023-03-26T08:34:10;23.80;;;2.67;;
37477;SDS011;23334;54.316;10.182;2023-03-26T08:36:36;6.23;;;1.50;;
37477;SDS011;23334;54.316;10.182;2023-03-26T08:39:03;20.40;;;2.90;;
37477;SDS011;23334;54.316;10.182;2023-03-26T08:44:46;5.80;;;2.10;;
37477;SDS011;23334;54.316;10.182;2023-03-26T08:55:48;10.40;;;2.00;;
37477;SDS011;23334;54.316;10.182;2023-03-26T08:58:27;9.70;;;2.40;;
37477;SDS011;23334;54.316;10.182;2023-03-26T09:01:10;7.90;;;2.23;;
37477;SDS011;23334;54.316;10.182;2023-03-26T09:04:06;13.50;;;2.00;;
37477;SDS011;23334;54.316;10.182;2023-03-26T09:06:55;6.60;;;1.67;;
37477;SDS011;23334;54.316;10.182;2023-03-26T09:09:47;8.93;;;2.10;;
37477;SDS011;23334;54.316;10.182;2023-03-26T09:15:21;9.10;;;2.47;;
37477;SDS011;23334;54.316;10.182;2023-03-26T09:18:22;10.40;;;2.20;;
37477;SDS011;23334;54.316;10.182;2023-03-26T09:21:25;11.00;;;1.73;;
37477;SDS011;23334;54.316;10.182;2023-03-26T09:24:00;12.33;;;2.37;;
37477;SDS011;23334;54.316;10.182;2023-03-26T09:26:57;8.80;;;1.83;;
37477;SDS011;23334;54.316;10.182;2023-03-26T09:41:24;7.10;;;2.00;;
37477;SDS011;23334;54.316;10.182;2023-03-26T09:50:01;7.23;;;2.03;;
37477;SDS011;23334;54.316;10.182;2023-03-26T09:53:07;13.10;;;2.23;;
37477;SDS011;23334;54.316;10.182;2023-03-26T10:13:22;6.60;;;1.80;;
37477;SDS011;23334;54.316;10.182;2023-03-26T10:16:03;13.00;;;2.57;;
37477;SDS011;23334;54.316;10.182;2023-03-26T10:19:08;14.93;;;2.40;;
37477;SDS011;23334;54.316;10.182;2023-03-26T10:24:37;5.97;;;1.97;;
37477;SDS011;23334;54.316;10.182;2023-03-26T10:27:31;10.93;;;1.70;;
37477;SDS011;23334;54.316;10.182;2023-03-26T10:30:21;11.73;;;2.30;;
37477;SDS011;23334;54.316;10.182;2023-03-26T10:33:29;16.90;;;2.50;;
37477;SDS011;23334;54.316;10.182;2023-03-26T10:36:14;12.63;;;2.40;;
37477;SDS011;23334;54.316;10.182;2023-03-26T10:39:10;11.40;;;1.90;;
37477;SDS011;23334;54.316;10.182;2023-03-26T10:41:58;30.00;;;3.20;;
37477;SDS011;23334;54.316;10.182;2023-03-26T10:50:27;24.37;;;3.83;;
37477;SDS011;23334;54.316;10.182;2023-03-26T10:53:06;10.03;;;2.63;;
37477;SDS011;23334;54.316;10.182;2023-03-26T10:56:00;11.37;;;2.87;;
37477;SDS011;23334;54.316;10.182;2023-03-26T10:58:45;8.07;;;1.90;;
37477;SDS011;23334;54.316;10.182;2023-03-26T11:03:56;8.23;;;1.93;;
37477;SDS011;23334;54.316;10.182;2023-03-26T11:07:23;18.77;;;3.23;;
37477;SDS011;23334;54.316;10.182;2023-03-26T11:13:33;13.73;;;2.20;;
37477;SDS011;23334;54.316;10.182;2023-03-26T11:16:02;8.20;;;2.10;;
37477;SDS011;23334;54.316;10.182;2023-03-26T11:18:35;10.70;;;1.80;;
37477;SDS011;23334;54.316;10.182;2023-03-26T11:21:17;7.43;;;2.30;;
37477;SDS011;23334;54.316;10.182;2023-03-26T11:26:44;4.90;;;1.67;;
37477;SDS011;23334;54.316;10.182;2023-03-26T11:29:38;3.63;;;1.77;;
37477;SDS011;23334;54.316;10.182;2023-03-26T11:32:26;9.13;;;1.90;;
37477;SDS011;23334;54.316;10.182;2023-03-26T11:35:05;10.23;;;2.83;;
37477;SDS011;23334;54.316;10.182;2023-03-26T11:37:40;11.87;;;2.30;;
37477;SDS011;23334;54.316;10.182;2023-03-26T11:40:13;14.10;;;2.80;;
37477;SDS011;23334;54.316;10.182;2023-03-26T11:42:45;12.27;;;1.77;;
37477;SDS011;23334;54.316;10.182;2023-03-26T11:45:15;9.30;;;2.87;;
37477;SDS011;23334;54.316;10.182;2023-03-26T11:48:07;7.90;;;1.90;;
37477;SDS011;23334;54.316;10.182;2023-03-26T11:50:58;3.23;;;1.57;;
37477;SDS011;23334;54.316;10.182;2023-03-26T11:53:28;9.20;;;2.00;;
37477;SDS011;23334;54.316;10.182;2023-03-26T11:55:59;7.67;;;1.63;;
37477;SDS011;23334;54.316;10.182;2023-03-26T11:58:38;4.13;;;1.37;;
37477;SDS011;23334;54.316;10.182;2023-03-26T12:01:12;6.80;;;2.07;;
37477;SDS011;23334;54.316;10.182;2023-03-26T12:03:39;8.73;;;1.83;;
37477;SDS011;23334;54.316;10.182;2023-03-26T12:06:09;6.33;;;2.00;;
37477;SDS011;23334;54.316;10.182;2023-03-26T12:08:47;12.30;;;1.40;;
37477;SDS011;23334;54.316;10.182;2023-03-26T12:11:14;5.90;;;1.77;;
37477;SDS011;23334;54.316;10.182;2023-03-26T12:13:44;6.40;;;1.20;;
37477;SDS011;23334;54.316;10.182;2023-03-26T12:16:19;5.90;;;1.30;;
37477;SDS011;23334;54.316;10.182;2023-03-26T12:18:46;4.50;;;1.70;;
37477;SDS011;23334;54.316;10.182;2023-03-26T12:21:29;6.50;;;1.20;;
37477;SDS011;23334;54.316;10.182;2023-03-26T12:23:59;9.30;;;1.57;;
37477;SDS011;23334;54.316;10.182;2023-03-26T12:26:29;8.50;;;2.13;;
37477;SDS011;23334;54.316;10.182;2023-03-26T12:29:14;8.70;;;1.70;;
37477;SDS011;23334;54.316;10.182;2023-03-26T12:31:44;10.93;;;1.13;;
37477;SDS011;23334;54.316;10.182;2023-03-26T12:34:17;17.43;;;1.43;;
37477;SDS011;23334;54.316;10.182;2023-03-26T12:36:56;7.30;;;2.00;;
37477;SDS011;23334;54.316;10.182;2023-03-26T12:39:26;7.30;;;1.07;;
37477;SDS011;23334;54.316;10.182;2023-03-26T12:42:01;6.97;;;1.40;;
37477;SDS011;23334;54.316;10.182;2023-03-26T12:44:32;6.73;;;1.13;;
37477;SDS011;23334;54.316;10.182;2023-03-26T12:47:12;6.03;;;1.20;;
37477;SDS011;23334;54.316;10.182;2023-03-26T12:49:54;8.20;;;1.43;;
37477;SDS011;23334;54.316;10.182;2023-03-26T12:52:28;8.37;;;1.70;;
37477;SDS011;23334;54.316;10.182;2023-03-26T13:00:56;3.33;;;1.30;;
37477;SDS011;23334;54.316;10.182;2023-03-26T13:09:03;7.80;;;1.07;;
37477;SDS011;23334;54.316;10.182;2023-03-26T13:17:25;2.80;;;0.90;;
37477;SDS011;23334;54.316;10.182;2023-03-26T13:29:09;5.27;;;1.47;;
37477;SDS011;23334;54.316;10.182;2023-03-26T13:31:43;11.77;;;1.80;;
37477;SDS011;23334;54.316;10.182;2023-03-26T13:34:22;4.07;;;1.47;;
37477;SDS011;23334;54.316;10.182;2023-03-26T13:37:17;6.10;;;2.00;;
37477;SDS011;23334;54.316;10.182;2023-03-26T13:40:02;8.20;;;1.13;;
37477;SDS011;23334;54.316;10.182;2023-03-26T13:45:41;2.67;;;1.10;;
37477;SDS011;23334;54.316;10.182;2023-03-26T13:48:26;10.40;;;0.97;;
37477;SDS011;23334;54.316;10.182;2023-03-26T13:51:18;7.23;;;1.40;;
37477;SDS011;23334;54.316;10.182;2023-03-26T13:53:51;5.67;;;1.40;;
37477;SDS011;23334;54.316;10.182;2023-03-26T13:56:28;7.87;;;1.60;;
37477;SDS011;23334;54.316;10.182;2023-03-26T13:59:02;6.03;;;1.30;;
37477;SDS011;23334;54.316;10.182;2023-03-26T14:01:40;9.43;;;1.67;;
37477;SDS011;23334;54.316;10.182;2023-03-26T14:04:17;4.10;;;1.00;;
37477;SDS011;23334;54.316;10.182;2023-03-26T14:07:01;4.53;;;1.60;;
37477;SDS011;23334;54.316;10.182;2023-03-26T14:09:46;3.33;;;1.20;;
37477;SDS011;23334;54.316;10.182;2023-03-26T14:12:36;3.03;;;1.20;;
37477;SDS011;23334;54.316;10.182;2023-03-26T14:15:37;2.77;;;1.03;;
37477;SDS011;23334;54.316;10.182;2023-03-26T14:18:15;3.47;;;0.83;;
37477;SDS011;23334;54.316;10.182;2023-03-26T14:23:51;4.80;;;1.23;;
37477;SDS011;23334;54.316;10.182;2023-03-26T14:29:08;2.50;;;1.00;;
37477;SDS011;23334;54.316;10.182;2023-03-26T14:32:04;7.07;;;1.20;;
37477;SDS011;23334;54.316;10.182;2023-03-26T14:40:54;8.37;;;1.20;;
37477;SDS011;23334;54.316;10.182;2023-03-26T14:55:11;5.77;;;1.37;;
37477;SDS011;23334;54.316;10.182;2023-03-26T14:58:20;3.43;;;1.13;;
37477;SDS011;23334;54.316;10.182;2023-03-26T15:01:19;6.13;;;1.00;;
37477;SDS011;23334;54.316;10.182;2023-03-26T15:04:10;3.47;;;0.80;;
37477;SDS011;23334;54.316;10.182;2023-03-26T15:12:17;2.03;;;0.80;;
37477;SDS011;23334;54.316;10.182;2023-03-26T15:31:53;1.20;;;0.80;;
37477;SDS011;23334;54.316;10.182;2023-03-26T15:34:30;1.17;;;0.70;;
37477;SDS011;23334;54.316;10.182;2023-03-26T15:42:57;1.63;;;0.70;;
37477;SDS011;23334;54.316;10.182;2023-03-26T15:45:32;1.17;;;1.03;;
37477;SDS011;23334;54.316;10.182;2023-03-26T15:48:12;2.43;;;0.70;;
37477;SDS011;23334;54.316;10.182;2023-03-26T15:50:48;2.57;;;0.83;;
37477;SDS011;23334;54.316;10.182;2023-03-26T15:53:54;4.30;;;0.80;;
37477;SDS011;23334;54.316;10.182;2023-03-26T15:59:59;1.93;;;0.90;;
37477;SDS011;23334;54.316;10.182;2023-03-26T16:05:52;2.87;;;0.50;;
37477;SDS011;23334;54.316;10.182;2023-03-26T16:11:11;1.20;;;0.70;;
37477;SDS011;23334;54.316;10.182;2023-03-26T16:13:41;1.60;;;0.83;;
37477;SDS011;23334;54.316;10.182;2023-03-26T16:18:41;1.80;;;0.73;;
37477;SDS011;23334;54.316;10.182;2023-03-26T16:23:54;0.67;;;0.50;;
37477;SDS011;23334;54.316;10.182;2023-03-26T16:26:38;2.13;;;0.70;;
37477;SDS011;23334;54.316;10.182;2023-03-26T16:29:14;3.37;;;0.90;;
37477;SDS011;23334;54.316;10.182;2023-03-26T16:32:02;0.60;;;0.40;;
37477;SDS011;23334;54.316;10.182;2023-03-26T16:34:36;0.70;;;0.50;;
37477;SDS011;23334;54.316;10.182;2023-03-26T16:42:44;0.77;;;0.77;;
37477;SDS011;23334;54.316;10.182;2023-03-26T16:47:45;0.90;;;0.80;;
37477;SDS011;23334;54.316;10.182;2023-03-26T16:50:42;2.40;;;0.60;;
37477;SDS011;23334;54.316;10.182;2023-03-26T16:53:39;1.83;;;0.83;;
37477;SDS011;23334;54.316;10.182;2023-03-26T16:56:44;0.80;;;0.60;;
37477;SDS011;23334;54.316;10.182;2023-03-26T17:05:18;1.00;;;0.63;;
37477;SDS011;23334;54.316;10.182;2023-03-26T17:07:51;1.10;;;0.40;;
37477;SDS011;23334;54.316;10.182;2023-03-26T17:10:34;0.80;;;0.60;;
37477;SDS011;23334;54.316;10.182;2023-03-26T17:13:10;0.90;;;0.60;;
37477;SDS011;23334;54.316;10.182;2023-03-26T17:15:58;0.70;;;0.60;;
37477;SDS011;23334;54.316;10.182;2023-03-26T17:26:41;1.57;;;1.00;;
37477;SDS011;23334;54.316;10.182;2023-03-26T17:29:38;1.10;;;1.00;;
37477;SDS011;23334;54.316;10.182;2023-03-26T17:32:11;1.33;;;1.13;;
37477;SDS011;23334;54.316;10.182;2023-03-26T17:44:54;2.17;;;0.70;;
37477;SDS011;23334;54.316;10.182;2023-03-26T17:50:29;1.47;;;0.60;;
37477;SDS011;23334;54.316;10.182;2023-03-26T17:55:28;0.67;;;0.60;;
37477;SDS011;23334;54.316;10.182;2023-03-26T17:57:56;0.77;;;0.50;;
37477;SDS011;23334;54.316;10.182;2023-03-26T18:00:28;0.70;;;0.57;;
37477;SDS011;23334;54.316;10.182;2023-03-26T18:03:01;1.13;;;0.40;;
37477;SDS011;23334;54.316;10.182;2023-03-26T18:05:38;0.60;;;0.40;;
37477;SDS011;23334;54.316;10.182;2023-03-26T18:08:12;0.70;;;0.50;;
37477;SDS011;23334;54.316;10.182;2023-03-26T18:10:49;2.70;;;0.40;;
37477;SDS011;23334;54.316;10.182;2023-03-26T18:18:36;1.80;;;0.50;;
37477;SDS011;23334;54.316;10.182;2023-03-26T18:21:16;3.00;;;0.80;;
37477;SDS011;23334;54.316;10.182;2023-03-26T18:23:47;1.10;;;0.40;;
37477;SDS011;23334;54.316;10.182;2023-03-26T18:26:31;1.30;;;0.60;;
37477;SDS011;23334;54.316;10.182;2023-03-26T18:29:25;0.97;;;0.60;;
37477;SDS011;23334;54.316;10.182;2023-03-26T18:31:56;0.70;;;0.50;;
37477;SDS011;23334;54.316;10.182;2023-03-26T18:34:26;0.70;;;0.60;;
37477;SDS011;23334;54.316;10.182;2023-03-26T18:39:39;1.53;;;0.40;;
37477;SDS011;23334;54.316;10.182;2023-03-26T18:42:08;0.67;;;0.50;;
37477;SDS011;23334;54.316;10.182;2023-03-26T18:44:42;2.10;;;0.90;;
37477;SDS011;23334;54.316;10.182;2023-03-26T18:47:09;1.27;;;0.60;;
37477;SDS011;23334;54.316;10.182;2023-03-26T18:49:35;0.63;;;0.40;;
37477;SDS011;23334;54.316;10.182;2023-03-26T18:52:01;0.87;;;0.50;;
37477;SDS011;23334;54.316;10.182;2023-03-26T18:54:28;1.27;;;0.60;;
37477;SDS011;23334;54.316;10.182;2023-03-26T18:57:06;0.70;;;0.50;;
37477;SDS011;23334;54.316;10.182;2023-03-26T18:59:34;1.87;;;0.57;;
37477;SDS011;23334;54.316;10.182;2023-03-26T19:02:05;1.73;;;0.70;;
37477;SDS011;23334;54.316;10.182;2023-03-26T19:04:36;1.03;;;0.50;;
37477;SDS011;23334;54.316;10.182;2023-03-26T19:07:08;1.77;;;0.60;;
37477;SDS011;23334;54.316;10.182;2023-03-26T19:09:37;2.50;;;0.60;;
37477;SDS011;23334;54.316;10.182;2023-03-26T19:12:13;0.67;;;0.47;;
37477;SDS011;23334;54.316;10.182;2023-03-26T19:15:02;5.17;;;0.60;;
37477;SDS011;23334;54.316;10.182;2023-03-26T19:17:40;2.40;;;0.70;;
37477;SDS011;23334;54.316;10.182;2023-03-26T19:20:12;2.50;;;0.50;;
37477;SDS011;23334;54.316;10.182;2023-03-26T19:22:44;6.43;;;0.50;;